sensor_id;sensor_type;location;lat;lon;timestamp;pressure;altitude;pressure_sealevel;temperature
62845;BMP280;48929;47.910;20.390;2023-03-01T00:01:52;100395.69;;;3.45
62845;BMP280;48929;47.910;20.390;2023-03-01T00:04:21;100395.47;;;3.40
62845;BMP280;48929;47.910;20.390;2023-03-01T00:06:49;100395.09;;;3.37
62845;BMP280;48929;47.910;20.390;2023-03-01T00:09:18;100399.00;;;3.33
62845;BMP280;48929;47.910;20.390;2023-03-01T00:11:48;100398.59;;;3.29
62845;BMP280;48929;47.910;20.390;2023-03-01T00:14:17;100396.63;;;3.25
62845;BMP280;48929;47.910;20.390;2023-03-01T00:16:46;100394.69;;;3.20
62845;BMP280;48929;47.910;20.390;2023-03-01T00:19:18;100392.13;;;3.13
62845;BMP280;48929;47.910;20.390;2023-03-01T00:21:48;100382.53;;;3.09
62845;BMP280;48929;47.910;20.390;2023-03-01T00:24:19;100385.25;;;3.01
62845;BMP280;48929;47.910;20.390;2023-03-01T00:26:47;100384.47;;;2.94
62845;BMP280;48929;47.910;20.390;2023-03-01T00:29:16;100382.69;;;2.88
62845;BMP280;48929;47.910;20.390;2023-03-01T00:31:44;100379.16;;;2.82
62845;BMP280;48929;47.910;20.390;2023-03-01T00:34:13;100380.72;;;2.76
62845;BMP280;48929;47.910;20.390;2023-03-01T00:36:44;100372.06;;;2.71
62845;BMP280;48929;47.910;20.390;2023-03-01T00:39:14;100373.78;;;2.64
62845;BMP280;48929;47.910;20.390;2023-03-01T00:41:43;100378.13;;;2.57
62845;BMP280;48929;47.910;20.390;2023-03-01T00:44:12;100373.38;;;2.47
62845;BMP280;48929;47.910;20.390;2023-03-01T00:46:40;100366.25;;;2.36
62845;BMP280;48929;47.910;20.390;2023-03-01T00:49:09;100368.41;;;2.26
62845;BMP280;48929;47.910;20.390;2023-03-01T00:51:38;100371.09;;;2.18
62845;BMP280;48929;47.910;20.390;2023-03-01T00:54:09;100365.16;;;2.04
62845;BMP280;48929;47.910;20.390;2023-03-01T00:56:38;100365.66;;;1.93
62845;BMP280;48929;47.910;20.390;2023-03-01T00:59:07;100367.97;;;1.81
62845;BMP280;48929;47.910;20.390;2023-03-01T01:01:36;100360.25;;;1.68
62845;BMP280;48929;47.910;20.390;2023-03-01T01:04:07;100365.03;;;1.56
62845;BMP280;48929;47.910;20.390;2023-03-01T01:06:38;100360.63;;;1.44
62845;BMP280;48929;47.910;20.390;2023-03-01T01:09:12;100365.06;;;1.35
62845;BMP280;48929;47.910;20.390;2023-03-01T01:11:44;100362.69;;;1.27
62845;BMP280;48929;47.910;20.390;2023-03-01T01:14:14;100361.28;;;1.24
62845;BMP280;48929;47.910;20.390;2023-03-01T01:16:43;100357.97;;;1.24
62845;BMP280;48929;47.910;20.390;2023-03-01T01:19:12;100350.34;;;1.24
62845;BMP280;48929;47.910;20.390;2023-03-01T01:21:41;100350.72;;;1.21
62845;BMP280;48929;47.910;20.390;2023-03-01T01:24:12;100349.66;;;1.15
62845;BMP280;48929;47.910;20.390;2023-03-01T01:26:41;100346.88;;;1.10
62845;BMP280;48929;47.910;20.390;2023-03-01T01:29:10;100342.34;;;1.06
62845;BMP280;48929;47.910;20.390;2023-03-01T01:31:41;100340.72;;;0.98
62845;BMP280;48929;47.910;20.390;2023-03-01T01:34:13;100343.25;;;0.98
62845;BMP280;48929;47.910;20.390;2023-03-01T01:36:42;100343.09;;;0.99
62845;BMP280;48929;47.910;20.390;2023-03-01T01:39:12;100346.41;;;1.00
62845;BMP280;48929;47.910;20.390;2023-03-01T01:41:42;100340.38;;;1.01
62845;BMP280;48929;47.910;20.390;2023-03-01T01:44:14;100332.38;;;1.04
62845;BMP280;48929;47.910;20.390;2023-03-01T01:46:44;100337.69;;;1.09
62845;BMP280;48929;47.910;20.390;2023-03-01T01:49:33;100332.88;;;1.14
62845;BMP280;48929;47.910;20.390;2023-03-01T01:52:09;100335.66;;;1.19
62845;BMP280;48929;47.910;20.390;2023-03-01T01:54:45;100323.38;;;1.23
62845;BMP280;48929;47.910;20.390;2023-03-01T01:57:18;100319.69;;;1.25
62845;BMP280;48929;47.910;20.390;2023-03-01T01:59:52;100326.16;;;1.28
62845;BMP280;48929;47.910;20.390;2023-03-01T02:02:22;100322.06;;;1.27
62845;BMP280;48929;47.910;20.390;2023-03-01T02:04:55;100319.69;;;1.25
62845;BMP280;48929;47.910;20.390;2023-03-01T02:07:27;100325.50;;;1.19
62845;BMP280;48929;47.910;20.390;2023-03-01T02:09:58;100323.06;;;1.11
62845;BMP280;48929;47.910;20.390;2023-03-01T02:12:27;100318.50;;;1.00
62845;BMP280;48929;47.910;20.390;2023-03-01T02:14:57;100315.28;;;0.91
62845;BMP280;48929;47.910;20.390;2023-03-01T02:17:25;100319.31;;;0.86
62845;BMP280;48929;47.910;20.390;2023-03-01T02:20:03;100323.53;;;0.79
62845;BMP280;48929;47.910;20.390;2023-03-01T02:22:39;100318.84;;;0.76
62845;BMP280;48929;47.910;20.390;2023-03-01T02:25:34;100318.41;;;0.72
62845;BMP280;48929;47.910;20.390;2023-03-01T02:28:10;100319.53;;;0.69
62845;BMP280;48929;47.910;20.390;2023-03-01T02:30:46;100309.56;;;0.68
62845;BMP280;48929;47.910;20.390;2023-03-01T02:33:31;100315.00;;;0.65
62845;BMP280;48929;47.910;20.390;2023-03-01T02:36:06;100315.53;;;0.60
62845;BMP280;48929;47.910;20.390;2023-03-01T02:38:35;100322.72;;;0.57
62845;BMP280;48929;47.910;20.390;2023-03-01T02:41:05;100320.53;;;0.54
62845;BMP280;48929;47.910;20.390;2023-03-01T02:43:37;100324.63;;;0.55
62845;BMP280;48929;47.910;20.390;2023-03-01T02:46:13;100325.44;;;0.55
62845;BMP280;48929;47.910;20.390;2023-03-01T02:48:44;100327.16;;;0.55
62845;BMP280;48929;47.910;20.390;2023-03-01T02:51:27;100327.78;;;0.57
62845;BMP280;48929;47.910;20.390;2023-03-01T02:54:07;100335.03;;;0.60
62845;BMP280;48929;47.910;20.390;2023-03-01T02:56:36;100331.38;;;0.62
62845;BMP280;48929;47.910;20.390;2023-03-01T02:59:05;100334.94;;;0.68
62845;BMP280;48929;47.910;20.390;2023-03-01T03:01:36;100325.06;;;0.73
62845;BMP280;48929;47.910;20.390;2023-03-01T03:04:07;100326.28;;;0.77
62845;BMP280;48929;47.910;20.390;2023-03-01T03:06:37;100320.81;;;0.80
62845;BMP280;48929;47.910;20.390;2023-03-01T03:09:05;100314.66;;;0.89
62845;BMP280;48929;47.910;20.390;2023-03-01T03:11:34;100313.59;;;0.98
62845;BMP280;48929;47.910;20.390;2023-03-01T03:14:03;100301.72;;;1.06
62845;BMP280;48929;47.910;20.390;2023-03-01T03:16:32;100300.03;;;1.13
62845;BMP280;48929;47.910;20.390;2023-03-01T03:19:03;100298.00;;;1.23
62845;BMP280;48929;47.910;20.390;2023-03-01T03:21:33;100299.81;;;1.29
62845;BMP280;48929;47.910;20.390;2023-03-01T03:24:02;100300.78;;;1.34
62845;BMP280;48929;47.910;20.390;2023-03-01T03:26:31;100309.41;;;1.40
62845;BMP280;48929;47.910;20.390;2023-03-01T03:29:00;100297.56;;;1.47
62845;BMP280;48929;47.910;20.390;2023-03-01T03:31:29;100297.81;;;1.52
62845;BMP280;48929;47.910;20.390;2023-03-01T03:33:58;100288.81;;;1.56
62845;BMP280;48929;47.910;20.390;2023-03-01T03:36:28;100300.97;;;1.61
62845;BMP280;48929;47.910;20.390;2023-03-01T03:38:58;100297.09;;;1.65
62845;BMP280;48929;47.910;20.390;2023-03-01T03:41:26;100289.28;;;1.66
62845;BMP280;48929;47.910;20.390;2023-03-01T03:43:59;100289.09;;;1.68
62845;BMP280;48929;47.910;20.390;2023-03-01T03:46:28;100294.19;;;1.68
62845;BMP280;48929;47.910;20.390;2023-03-01T03:48:57;100288.88;;;1.63
62845;BMP280;48929;47.910;20.390;2023-03-01T03:51:26;100297.66;;;1.60
62845;BMP280;48929;47.910;20.390;2023-03-01T03:53:56;100298.59;;;1.53
62845;BMP280;48929;47.910;20.390;2023-03-01T03:56:25;100290.50;;;1.43
62845;BMP280;48929;47.910;20.390;2023-03-01T03:58:54;100295.50;;;1.36
62845;BMP280;48929;47.910;20.390;2023-03-01T04:01:23;100296.31;;;1.30
62845;BMP280;48929;47.910;20.390;2023-03-01T04:03:51;100291.59;;;1.27
62845;BMP280;48929;47.910;20.390;2023-03-01T04:06:21;100294.31;;;1.25
62845;BMP280;48929;47.910;20.390;2023-03-01T04:08:50;100291.41;;;1.28
62845;BMP280;48929;47.910;20.390;2023-03-01T04:11:28;100285.75;;;1.33
62845;BMP280;48929;47.910;20.390;2023-03-01T04:13:58;100289.47;;;1.37
62845;BMP280;48929;47.910;20.390;2023-03-01T04:16:27;100295.75;;;1.41
62845;BMP280;48929;47.910;20.390;2023-03-01T04:18:56;100287.78;;;1.44
62845;BMP280;48929;47.910;20.390;2023-03-01T04:21:26;100287.59;;;1.46
62845;BMP280;48929;47.910;20.390;2023-03-01T04:23:55;100290.72;;;1.48
62845;BMP280;48929;47.910;20.390;2023-03-01T04:26:24;100292.91;;;1.51
62845;BMP280;48929;47.910;20.390;2023-03-01T04:28:55;100297.63;;;1.54
62845;BMP280;48929;47.910;20.390;2023-03-01T04:31:24;100287.06;;;1.57
62845;BMP280;48929;47.910;20.390;2023-03-01T04:33:54;100292.56;;;1.60
62845;BMP280;48929;47.910;20.390;2023-03-01T04:36:25;100295.53;;;1.64
62845;BMP280;48929;47.910;20.390;2023-03-01T04:38:55;100295.75;;;1.69
62845;BMP280;48929;47.910;20.390;2023-03-01T04:41:25;100302.22;;;1.71
62845;BMP280;48929;47.910;20.390;2023-03-01T04:43:55;100301.06;;;1.74
62845;BMP280;48929;47.910;20.390;2023-03-01T04:46:27;100302.28;;;1.78
62845;BMP280;48929;47.910;20.390;2023-03-01T04:48:56;100298.75;;;1.79
62845;BMP280;48929;47.910;20.390;2023-03-01T04:51:25;100295.44;;;1.79
62845;BMP280;48929;47.910;20.390;2023-03-01T04:53:53;100294.06;;;1.83
62845;BMP280;48929;47.910;20.390;2023-03-01T04:56:22;100298.19;;;1.84
62845;BMP280;48929;47.910;20.390;2023-03-01T04:58:53;100296.81;;;1.88
62845;BMP280;48929;47.910;20.390;2023-03-01T05:01:26;100298.19;;;1.90
62845;BMP280;48929;47.910;20.390;2023-03-01T05:03:54;100309.75;;;1.93
62845;BMP280;48929;47.910;20.390;2023-03-01T05:06:29;100303.31;;;1.97
62845;BMP280;48929;47.910;20.390;2023-03-01T05:08:59;100301.38;;;1.99
62845;BMP280;48929;47.910;20.390;2023-03-01T05:11:28;100290.25;;;2.00
62845;BMP280;48929;47.910;20.390;2023-03-01T05:14:00;100296.91;;;2.01
62845;BMP280;48929;47.910;20.390;2023-03-01T05:16:31;100291.63;;;2.02
62845;BMP280;48929;47.910;20.390;2023-03-01T05:19:02;100293.19;;;2.03
62845;BMP280;48929;47.910;20.390;2023-03-01T05:21:38;100290.66;;;2.03
62845;BMP280;48929;47.910;20.390;2023-03-01T05:24:27;100296.94;;;2.07
62845;BMP280;48929;47.910;20.390;2023-03-01T05:26:57;100300.44;;;2.06
62845;BMP280;48929;47.910;20.390;2023-03-01T05:29:27;100304.75;;;2.06
62845;BMP280;48929;47.910;20.390;2023-03-01T05:31:58;100301.03;;;2.08
62845;BMP280;48929;47.910;20.390;2023-03-01T05:34:29;100301.63;;;2.11
62845;BMP280;48929;47.910;20.390;2023-03-01T05:36:58;100308.88;;;2.14
62845;BMP280;48929;47.910;20.390;2023-03-01T05:39:29;100306.34;;;2.14
62845;BMP280;48929;47.910;20.390;2023-03-01T05:42:00;100305.34;;;2.15
62845;BMP280;48929;47.910;20.390;2023-03-01T05:44:29;100303.00;;;2.13
62845;BMP280;48929;47.910;20.390;2023-03-01T05:46:59;100312.78;;;2.16
62845;BMP280;48929;47.910;20.390;2023-03-01T05:49:29;100310.84;;;2.18
62845;BMP280;48929;47.910;20.390;2023-03-01T05:51:58;100313.03;;;2.21
62845;BMP280;48929;47.910;20.390;2023-03-01T05:54:27;100312.47;;;2.26
62845;BMP280;48929;47.910;20.390;2023-03-01T05:56:56;100312.88;;;2.29
62845;BMP280;48929;47.910;20.390;2023-03-01T05:59:25;100319.69;;;2.35
62845;BMP280;48929;47.910;20.390;2023-03-01T06:01:54;100318.16;;;2.41
62845;BMP280;48929;47.910;20.390;2023-03-01T06:04:24;100314.25;;;2.45
62845;BMP280;48929;47.910;20.390;2023-03-01T06:06:53;100312.72;;;2.51
62845;BMP280;48929;47.910;20.390;2023-03-01T06:09:22;100311.19;;;2.56
62845;BMP280;48929;47.910;20.390;2023-03-01T06:11:53;100312.34;;;2.60
62845;BMP280;48929;47.910;20.390;2023-03-01T06:14:21;100317.81;;;2.64
62845;BMP280;48929;47.910;20.390;2023-03-01T06:16:50;100332.13;;;2.71
62845;BMP280;48929;47.910;20.390;2023-03-01T06:19:19;100331.19;;;2.79
62845;BMP280;48929;47.910;20.390;2023-03-01T06:21:49;100329.63;;;2.85
62845;BMP280;48929;47.910;20.390;2023-03-01T06:24:19;100321.41;;;2.89
62845;BMP280;48929;47.910;20.390;2023-03-01T06:26:48;100321.19;;;2.97
62845;BMP280;48929;47.910;20.390;2023-03-01T06:29:16;100320.63;;;3.02
62845;BMP280;48929;47.910;20.390;2023-03-01T06:31:45;100318.09;;;3.08
62845;BMP280;48929;47.910;20.390;2023-03-01T06:34:14;100322.56;;;3.13
62845;BMP280;48929;47.910;20.390;2023-03-01T06:36:43;100316.72;;;3.19
62845;BMP280;48929;47.910;20.390;2023-03-01T06:39:14;100320.81;;;3.27
62845;BMP280;48929;47.910;20.390;2023-03-01T06:41:44;100320.81;;;3.33
62845;BMP280;48929;47.910;20.390;2023-03-01T06:44:13;100319.81;;;3.41
62845;BMP280;48929;47.910;20.390;2023-03-01T06:46:42;100319.03;;;3.47
62845;BMP280;48929;47.910;20.390;2023-03-01T06:49:11;100320.19;;;3.51
62845;BMP280;48929;47.910;20.390;2023-03-01T06:51:40;100320.38;;;3.56
62845;BMP280;48929;47.910;20.390;2023-03-01T06:54:09;100316.28;;;3.62
62845;BMP280;48929;47.910;20.390;2023-03-01T06:56:39;100314.06;;;3.72
62845;BMP280;48929;47.910;20.390;2023-03-01T06:59:08;100316.19;;;3.81
62845;BMP280;48929;47.910;20.390;2023-03-01T07:01:40;100314.63;;;3.87
62845;BMP280;48929;47.910;20.390;2023-03-01T07:04:09;100307.72;;;3.94
62845;BMP280;48929;47.910;20.390;2023-03-01T07:06:38;100314.94;;;4.04
62845;BMP280;48929;47.910;20.390;2023-03-01T07:09:06;100317.88;;;4.14
62845;BMP280;48929;47.910;20.390;2023-03-01T07:11:35;100313.47;;;4.21
62845;BMP280;48929;47.910;20.390;2023-03-01T07:14:06;100308.56;;;4.26
62845;BMP280;48929;47.910;20.390;2023-03-01T07:16:35;100296.34;;;4.35
62845;BMP280;48929;47.910;20.390;2023-03-01T07:19:04;100303.53;;;4.44
62845;BMP280;48929;47.910;20.390;2023-03-01T07:21:32;100304.44;;;4.56
62845;BMP280;48929;47.910;20.390;2023-03-01T07:24:01;100303.38;;;4.71
62845;BMP280;48929;47.910;20.390;2023-03-01T07:26:30;100303.09;;;4.79
62845;BMP280;48929;47.910;20.390;2023-03-01T07:28:59;100300.88;;;4.89
62845;BMP280;48929;47.910;20.390;2023-03-01T07:31:30;100299.78;;;5.03
62845;BMP280;48929;47.910;20.390;2023-03-01T07:33:58;100292.81;;;5.10
62845;BMP280;48929;47.910;20.390;2023-03-01T07:36:27;100300.25;;;5.18
62845;BMP280;48929;47.910;20.390;2023-03-01T07:38:56;100297.16;;;5.28
62845;BMP280;48929;47.910;20.390;2023-03-01T07:41:25;100299.88;;;5.33
62845;BMP280;48929;47.910;20.390;2023-03-01T07:43:54;100296.06;;;5.42
62845;BMP280;48929;47.910;20.390;2023-03-01T07:46:22;100293.63;;;5.47
62845;BMP280;48929;47.910;20.390;2023-03-01T07:48:53;100291.63;;;5.49
62845;BMP280;48929;47.910;20.390;2023-03-01T07:51:22;100293.56;;;5.54
62845;BMP280;48929;47.910;20.390;2023-03-01T07:53:52;100292.00;;;5.71
62845;BMP280;48929;47.910;20.390;2023-03-01T07:56:21;100295.59;;;5.82
62845;BMP280;48929;47.910;20.390;2023-03-01T07:58:50;100287.50;;;5.85
62845;BMP280;48929;47.910;20.390;2023-03-01T08:01:20;100288.56;;;5.95
62845;BMP280;48929;47.910;20.390;2023-03-01T08:03:49;100292.78;;;6.01
62845;BMP280;48929;47.910;20.390;2023-03-01T08:06:20;100287.72;;;6.13
62845;BMP280;48929;47.910;20.390;2023-03-01T08:08:48;100277.28;;;6.15
62845;BMP280;48929;47.910;20.390;2023-03-01T08:11:18;100288.63;;;6.19
62845;BMP280;48929;47.910;20.390;2023-03-01T08:13:48;100284.75;;;6.28
62845;BMP280;48929;47.910;20.390;2023-03-01T08:16:19;100281.00;;;6.42
62845;BMP280;48929;47.910;20.390;2023-03-01T08:18:48;100279.53;;;6.58
62845;BMP280;48929;47.910;20.390;2023-03-01T08:21:17;100277.47;;;6.66
62845;BMP280;48929;47.910;20.390;2023-03-01T08:23:47;100269.66;;;6.73
62845;BMP280;48929;47.910;20.390;2023-03-01T08:26:17;100268.97;;;6.77
62845;BMP280;48929;47.910;20.390;2023-03-01T08:28:46;100270.78;;;6.89
62845;BMP280;48929;47.910;20.390;2023-03-01T08:31:17;100253.41;;;6.91
62845;BMP280;48929;47.910;20.390;2023-03-01T08:33:47;100263.63;;;7.02
62845;BMP280;48929;47.910;20.390;2023-03-01T08:36:18;100259.16;;;7.09
62845;BMP280;48929;47.910;20.390;2023-03-01T08:38:49;100247.56;;;7.18
62845;BMP280;48929;47.910;20.390;2023-03-01T08:41:18;100256.13;;;7.24
62845;BMP280;48929;47.910;20.390;2023-03-01T08:43:47;100239.59;;;7.32
62845;BMP280;48929;47.910;20.390;2023-03-01T08:46:16;100241.25;;;7.38
62845;BMP280;48929;47.910;20.390;2023-03-01T08:48:45;100241.66;;;7.46
62845;BMP280;48929;47.910;20.390;2023-03-01T08:51:17;100244.56;;;7.50
62845;BMP280;48929;47.910;20.390;2023-03-01T08:53:46;100249.50;;;7.68
62845;BMP280;48929;47.910;20.390;2023-03-01T08:56:18;100247.03;;;7.73
62845;BMP280;48929;47.910;20.390;2023-03-01T08:58:47;100240.69;;;7.76
62845;BMP280;48929;47.910;20.390;2023-03-01T09:01:18;100248.59;;;7.91
62845;BMP280;48929;47.910;20.390;2023-03-01T09:03:47;100250.91;;;8.04
62845;BMP280;48929;47.910;20.390;2023-03-01T09:06:16;100242.34;;;8.15
62845;BMP280;48929;47.910;20.390;2023-03-01T09:08:47;100234.78;;;8.25
62845;BMP280;48929;47.910;20.390;2023-03-01T09:11:21;100240.25;;;8.29
62845;BMP280;48929;47.910;20.390;2023-03-01T09:13:50;100237.09;;;8.44
62845;BMP280;48929;47.910;20.390;2023-03-01T09:16:21;100231.31;;;8.53
62845;BMP280;48929;47.910;20.390;2023-03-01T09:18:51;100222.97;;;8.63
62845;BMP280;48929;47.910;20.390;2023-03-01T09:21:23;100218.31;;;8.60
62845;BMP280;48929;47.910;20.390;2023-03-01T09:24:08;100209.53;;;8.56
62845;BMP280;48929;47.910;20.390;2023-03-01T09:26:41;100206.97;;;8.56
62845;BMP280;48929;47.910;20.390;2023-03-01T09:29:16;100225.84;;;8.66
62845;BMP280;48929;47.910;20.390;2023-03-01T09:31:48;100214.16;;;8.75
62845;BMP280;48929;47.910;20.390;2023-03-01T09:34:24;100213.41;;;9.02
62845;BMP280;48929;47.910;20.390;2023-03-01T09:36:52;100214.19;;;9.24
62845;BMP280;48929;47.910;20.390;2023-03-01T09:39:21;100210.91;;;9.29
62845;BMP280;48929;47.910;20.390;2023-03-01T09:41:58;100205.81;;;9.34
62845;BMP280;48929;47.910;20.390;2023-03-01T09:44:34;100214.31;;;9.39
62845;BMP280;48929;47.910;20.390;2023-03-01T09:47:04;100205.31;;;9.37
62845;BMP280;48929;47.910;20.390;2023-03-01T09:49:35;100191.50;;;9.21
62845;BMP280;48929;47.910;20.390;2023-03-01T09:52:13;100204.31;;;9.16
62845;BMP280;48929;47.910;20.390;2023-03-01T09:54:49;100195.28;;;9.13
62845;BMP280;48929;47.910;20.390;2023-03-01T09:57:27;100201.78;;;9.21
62845;BMP280;48929;47.910;20.390;2023-03-01T10:00:12;100199.88;;;9.38
62845;BMP280;48929;47.910;20.390;2023-03-01T10:02:48;100194.19;;;9.58
62845;BMP280;48929;47.910;20.390;2023-03-01T10:05:31;100197.16;;;9.77
62845;BMP280;48929;47.910;20.390;2023-03-01T10:08:13;100182.47;;;9.77
62845;BMP280;48929;47.910;20.390;2023-03-01T10:10:49;100183.03;;;9.79
62845;BMP280;48929;47.910;20.390;2023-03-01T10:13:25;100175.00;;;9.76
62845;BMP280;48929;47.910;20.390;2023-03-01T10:15:57;100167.72;;;9.68
62845;BMP280;48929;47.910;20.390;2023-03-01T10:18:29;100167.78;;;9.73
62845;BMP280;48929;47.910;20.390;2023-03-01T10:21:00;100158.31;;;9.83
62845;BMP280;48929;47.910;20.390;2023-03-01T10:23:32;100144.16;;;9.81
62845;BMP280;48929;47.910;20.390;2023-03-01T10:26:20;100140.25;;;9.73
62845;BMP280;48929;47.910;20.390;2023-03-01T10:29:02;100155.56;;;9.95
62845;BMP280;48929;47.910;20.390;2023-03-01T10:31:39;100132.44;;;10.00
62845;BMP280;48929;47.910;20.390;2023-03-01T10:34:13;100131.94;;;10.03
62845;BMP280;48929;47.910;20.390;2023-03-01T10:36:43;100128.03;;;10.01
62845;BMP280;48929;47.910;20.390;2023-03-01T10:39:14;100122.09;;;9.95
62845;BMP280;48929;47.910;20.390;2023-03-01T10:41:56;100124.34;;;9.86
62845;BMP280;48929;47.910;20.390;2023-03-01T10:44:42;100124.06;;;9.78
62845;BMP280;48929;47.910;20.390;2023-03-01T10:47:19;100122.75;;;9.75
62845;BMP280;48929;47.910;20.390;2023-03-01T10:50:02;100108.00;;;9.66
62845;BMP280;48929;47.910;20.390;2023-03-01T10:52:36;100109.53;;;9.62
62845;BMP280;48929;47.910;20.390;2023-03-01T10:55:24;100098.16;;;9.52
62845;BMP280;48929;47.910;20.390;2023-03-01T10:58:08;100096.88;;;9.55
62845;BMP280;48929;47.910;20.390;2023-03-01T11:00:51;100097.59;;;9.50
62845;BMP280;48929;47.910;20.390;2023-03-01T11:03:25;100086.44;;;9.40
62845;BMP280;48929;47.910;20.390;2023-03-01T11:06:05;100082.75;;;9.26
62845;BMP280;48929;47.910;20.390;2023-03-01T11:08:37;100072.06;;;9.07
62845;BMP280;48929;47.910;20.390;2023-03-01T11:11:14;100076.56;;;8.95
62845;BMP280;48929;47.910;20.390;2023-03-01T11:13:57;100078.31;;;8.89
62845;BMP280;48929;47.910;20.390;2023-03-01T11:16:34;100069.84;;;8.89
62845;BMP280;48929;47.910;20.390;2023-03-01T11:19:21;100064.38;;;8.85
62845;BMP280;48929;47.910;20.390;2023-03-01T11:22:01;100060.78;;;8.81
62845;BMP280;48929;47.910;20.390;2023-03-01T11:24:34;100058.69;;;8.78
62845;BMP280;48929;47.910;20.390;2023-03-01T11:27:16;100060.47;;;8.77
62845;BMP280;48929;47.910;20.390;2023-03-01T11:29:48;100054.56;;;8.77
62845;BMP280;48929;47.910;20.390;2023-03-01T11:32:24;100050.22;;;8.77
62845;BMP280;48929;47.910;20.390;2023-03-01T11:34:57;100047.09;;;8.75
62845;BMP280;48929;47.910;20.390;2023-03-01T11:37:33;100041.72;;;8.77
62845;BMP280;48929;47.910;20.390;2023-03-01T11:40:17;100034.03;;;8.82
62845;BMP280;48929;47.910;20.390;2023-03-01T11:43:05;100038.47;;;8.92
62845;BMP280;48929;47.910;20.390;2023-03-01T11:45:47;100039.03;;;8.94
62845;BMP280;48929;47.910;20.390;2023-03-01T11:48:47;100034.50;;;9.01
62845;BMP280;48929;47.910;20.390;2023-03-01T11:51:24;100035.00;;;9.03
62845;BMP280;48929;47.910;20.390;2023-03-01T11:54:05;100024.22;;;9.06
62845;BMP280;48929;47.910;20.390;2023-03-01T11:56:38;100020.13;;;9.10
62845;BMP280;48929;47.910;20.390;2023-03-01T12:02:44;100015.66;;;9.27
62845;BMP280;48929;47.910;20.390;2023-03-01T12:05:40;100014.66;;;9.33
62845;BMP280;48929;47.910;20.390;2023-03-01T12:08:16;100000.50;;;9.36
62845;BMP280;48929;47.910;20.390;2023-03-01T12:10:52;99997.72;;;9.42
62845;BMP280;48929;47.910;20.390;2023-03-01T12:13:45;100002.66;;;9.49
62845;BMP280;48929;47.910;20.390;2023-03-01T12:16:36;99996.28;;;9.67
62845;BMP280;48929;47.910;20.390;2023-03-01T12:19:22;99986.06;;;9.72
62845;BMP280;48929;47.910;20.390;2023-03-01T12:22:13;99979.88;;;9.73
62845;BMP280;48929;47.910;20.390;2023-03-01T12:25:10;99981.97;;;9.81
62845;BMP280;48929;47.910;20.390;2023-03-01T12:28:10;99980.19;;;9.81
62845;BMP280;48929;47.910;20.390;2023-03-01T12:33:57;99972.78;;;10.10
62845;BMP280;48929;47.910;20.390;2023-03-01T12:36:42;99969.44;;;10.15
62845;BMP280;48929;47.910;20.390;2023-03-01T12:39:26;99975.91;;;10.17
62845;BMP280;48929;47.910;20.390;2023-03-01T12:42:04;99972.56;;;10.17
62845;BMP280;48929;47.910;20.390;2023-03-01T12:44:52;99966.63;;;10.16
62845;BMP280;48929;47.910;20.390;2023-03-01T12:47:42;99973.81;;;10.19
62845;BMP280;48929;47.910;20.390;2023-03-01T12:50:19;99966.38;;;10.23
62845;BMP280;48929;47.910;20.390;2023-03-01T12:52:55;99953.25;;;10.24
62845;BMP280;48929;47.910;20.390;2023-03-01T12:55:29;99949.13;;;10.28
62845;BMP280;48929;47.910;20.390;2023-03-01T12:58:05;99943.22;;;10.33
62845;BMP280;48929;47.910;20.390;2023-03-01T13:00:41;99946.06;;;10.36
62845;BMP280;48929;47.910;20.390;2023-03-01T13:03:22;99931.63;;;10.41
62845;BMP280;48929;47.910;20.390;2023-03-01T13:06:04;99929.28;;;10.44
62845;BMP280;48929;47.910;20.390;2023-03-01T13:08:40;99926.97;;;10.48
62845;BMP280;48929;47.910;20.390;2023-03-01T13:11:17;99932.66;;;10.55
62845;BMP280;48929;47.910;20.390;2023-03-01T13:13:46;99919.28;;;10.58
62845;BMP280;48929;47.910;20.390;2023-03-01T13:16:39;99917.72;;;10.57
62845;BMP280;48929;47.910;20.390;2023-03-01T13:19:12;99922.34;;;10.60
62845;BMP280;48929;47.910;20.390;2023-03-01T13:21:43;99925.94;;;10.59
62845;BMP280;48929;47.910;20.390;2023-03-01T13:24:27;99930.59;;;10.62
62845;BMP280;48929;47.910;20.390;2023-03-01T13:27:23;99924.13;;;10.64
62845;BMP280;48929;47.910;20.390;2023-03-01T13:30:00;99923.59;;;10.67
62845;BMP280;48929;47.910;20.390;2023-03-01T13:32:34;99914.59;;;10.70
62845;BMP280;48929;47.910;20.390;2023-03-01T13:35:42;99919.22;;;10.68
62845;BMP280;48929;47.910;20.390;2023-03-01T13:38:37;99915.13;;;10.67
62845;BMP280;48929;47.910;20.390;2023-03-01T13:41:07;99912.00;;;10.70
62845;BMP280;48929;47.910;20.390;2023-03-01T13:43:40;99908.66;;;10.69
62845;BMP280;48929;47.910;20.390;2023-03-01T13:46:14;99911.50;;;10.68
62845;BMP280;48929;47.910;20.390;2023-03-01T13:48:48;99914.34;;;10.66
62845;BMP280;48929;47.910;20.390;2023-03-01T13:51:21;99908.41;;;10.66
62845;BMP280;48929;47.910;20.390;2023-03-01T13:53:52;99908.13;;;10.67
62845;BMP280;48929;47.910;20.390;2023-03-01T13:56:24;99909.97;;;10.67
62845;BMP280;48929;47.910;20.390;2023-03-01T13:58:58;99898.88;;;10.71
62845;BMP280;48929;47.910;20.390;2023-03-01T14:01:29;99899.09;;;10.75
62845;BMP280;48929;47.910;20.390;2023-03-01T14:03:59;99903.25;;;10.76
62845;BMP280;48929;47.910;20.390;2023-03-01T14:06:29;99903.75;;;10.78
62845;BMP280;48929;47.910;20.390;2023-03-01T14:09:05;99893.94;;;10.75
62845;BMP280;48929;47.910;20.390;2023-03-01T14:11:56;99899.41;;;10.73
62845;BMP280;48929;47.910;20.390;2023-03-01T14:14:48;99905.56;;;10.72
62845;BMP280;48929;47.910;20.390;2023-03-01T14:17:49;99900.66;;;10.76
62845;BMP280;48929;47.910;20.390;2023-03-01T14:20:22;99901.19;;;10.78
62845;BMP280;48929;47.910;20.390;2023-03-01T14:22:53;99898.59;;;10.78
62845;BMP280;48929;47.910;20.390;2023-03-01T14:25:25;99899.63;;;10.77
62845;BMP280;48929;47.910;20.390;2023-03-01T14:27:57;99899.38;;;10.78
62845;BMP280;48929;47.910;20.390;2023-03-01T14:30:32;99901.44;;;10.82
62845;BMP280;48929;47.910;20.390;2023-03-01T14:33:03;99904.81;;;10.82
62845;BMP280;48929;47.910;20.390;2023-03-01T14:35:35;99895.78;;;10.79
62845;BMP280;48929;47.910;20.390;2023-03-01T14:38:20;99901.19;;;10.78